Terminal Aerodrome Forecast
Issued by NWS

Home | Current Version | Previous Version | Graphics & Text | Print | Product List | Glossary On
Versions: 1 2 3 4 5 6 7 8 9 10 11 12 13 14 15 16
000
FTUS43 KICT 101100
TAFRSL
TAF
KRSL 101122Z 1012/1112 16014G20KT P6SM VCTS SCT050CB BKN100
     FM101600 17020G29KT P6SM FEW060
     FM110200 17016G23KT P6SM SKC=

USA.gov is the U.S. government's official web portal to all federal, state and local government web resources and services.